| Back to River Map | <<< Previous Forecast Point | | | Next Forecast Point >>> | Printer Version | Graph Version |  |
|
TRINITY RIVER - ABOVE NORTH FORK TRINITY RIVER NEAR HELENA (TRNC1)
| Latitude: 40.77º N | Longitude: 123.11º W | Elevation: 1380 Feet | | Forecast Type: Unofficial Location |
| Location: Trinity County in California | Bulletin Group: North Coast | River Group: Klamath |
| Issuance Time: | May 05 2026 at 7:46 AM PDT | Next Issuance: | May 06 2026 at 9:00 AM PDT
| |
| Action/Monitor: N/A | Minor Flood: N/A | Moderate Flood: N/A | Major Flood: N/A |
# Tabular Observed and Forecast Hydrograph Information
#
# Location: Trinity River - Above NF Trinity R Nr Helena (TRNC1)
#
# File Generation Time: 05/05/2026 at 07:47 AM PDT
# Data Interval: 1 Hour
#
# Most Recent Date & Time of Maximum Observed: 04/30/2026 at 08:00 AM PDT
# Maximum Observed Stage: 11.91 Feet
# Maximum Observed Flow: 2158 cfs
#
# Earliest Date & Time of Maximum Forecast: 05/05/2026 at 08:00 AM PDT
# Maximum Forecast Stage: 11.55 Feet
# Maximum Forecast Flow: 1851 cfs
#
# OBSERVED
#
# Date & Time (Local) Stage (Feet) Flow (cfs) Trend Observed Status
# ---------------------------------------------------------------------------------
04/30/2026 07 AM PDT 11.89 2140 Not Applicable
04/30/2026 08 AM PDT 11.91 2158 + Not Applicable
04/30/2026 09 AM PDT 11.86 2114 - Not Applicable
04/30/2026 10 AM PDT 11.87 2123 + Not Applicable
04/30/2026 11 AM PDT 11.88 2131 + Not Applicable
04/30/2026 12 PM PDT 11.88 2131 0 Not Applicable
04/30/2026 01 PM PDT 11.89 2140 + Not Applicable
04/30/2026 02 PM PDT 11.88 2131 - Not Applicable
04/30/2026 03 PM PDT 11.89 2140 + Not Applicable
04/30/2026 04 PM PDT 11.88 2131 - Not Applicable
04/30/2026 05 PM PDT 11.87 2123 - Not Applicable
04/30/2026 06 PM PDT 11.87 2123 0 Not Applicable
04/30/2026 07 PM PDT 11.85 2105 - Not Applicable
04/30/2026 08 PM PDT 11.80 2062 - Not Applicable
04/30/2026 09 PM PDT 11.77 2036 - Not Applicable
04/30/2026 10 PM PDT 11.77 2036 0 Not Applicable
04/30/2026 11 PM PDT 11.76 2027 - Not Applicable
05/01/2026 12 AM PDT 11.76 2027 0 Not Applicable
05/01/2026 01 AM PDT 11.77 2036 + Not Applicable
05/01/2026 02 AM PDT 11.77 2036 0 Not Applicable
05/01/2026 03 AM PDT 11.81 2070 + Not Applicable
05/01/2026 04 AM PDT 11.79 2053 - Not Applicable
05/01/2026 05 AM PDT 11.78 2045 - Not Applicable
05/01/2026 06 AM PDT 11.80 2062 + Not Applicable
05/01/2026 07 AM PDT 11.77 2036 - Not Applicable
05/01/2026 08 AM PDT 11.78 2045 + Not Applicable
05/01/2026 09 AM PDT 11.79 2053 + Not Applicable
05/01/2026 10 AM PDT 11.79 2053 0 Not Applicable
05/01/2026 11 AM PDT 11.74 2010 - Not Applicable
05/01/2026 12 PM PDT 11.72 1993 - Not Applicable
05/01/2026 01 PM PDT 11.73 2002 + Not Applicable
05/01/2026 02 PM PDT 11.70 1976 - Not Applicable
05/01/2026 03 PM PDT 11.71 1985 + Not Applicable
05/01/2026 04 PM PDT 11.69 1968 - Not Applicable
05/01/2026 05 PM PDT 11.69 1968 0 Not Applicable
05/01/2026 06 PM PDT 11.71 1985 + Not Applicable
05/01/2026 07 PM PDT 11.69 1968 - Not Applicable
05/01/2026 08 PM PDT 11.72 1993 + Not Applicable
05/01/2026 09 PM PDT 11.68 1959 - Not Applicable
05/01/2026 10 PM PDT 11.70 1976 + Not Applicable
05/01/2026 11 PM PDT 11.70 1976 0 Not Applicable
05/02/2026 12 AM PDT 11.71 1985 + Not Applicable
05/02/2026 01 AM PDT 11.70 1976 - Not Applicable
05/02/2026 02 AM PDT 11.71 1985 + Not Applicable
05/02/2026 03 AM PDT 11.71 1985 0 Not Applicable
05/02/2026 04 AM PDT 11.71 1985 0 Not Applicable
05/02/2026 05 AM PDT 11.67 1951 - Not Applicable
05/02/2026 06 AM PDT 11.68 1959 + Not Applicable
05/02/2026 07 AM PDT 11.69 1968 + Not Applicable
05/02/2026 08 AM PDT 11.66 1943 - Not Applicable
05/02/2026 09 AM PDT 11.69 1968 + Not Applicable
05/02/2026 10 AM PDT 11.69 1968 0 Not Applicable
05/02/2026 11 AM PDT 11.70 1976 + Not Applicable
05/02/2026 12 PM PDT 11.68 1959 - Not Applicable
05/02/2026 01 PM PDT 11.71 1985 + Not Applicable
05/02/2026 02 PM PDT 11.70 1976 - Not Applicable
05/02/2026 03 PM PDT 11.69 1968 - Not Applicable
05/02/2026 04 PM PDT 11.67 1951 - Not Applicable
05/02/2026 05 PM PDT 11.64 1926 - Not Applicable
05/02/2026 06 PM PDT 11.60 1892 - Not Applicable
05/02/2026 07 PM PDT 11.64 1926 + Not Applicable
05/02/2026 08 PM PDT 11.64 1926 0 Not Applicable
05/02/2026 09 PM PDT 11.64 1926 0 Not Applicable
05/02/2026 10 PM PDT 11.62 1909 - Not Applicable
05/02/2026 11 PM PDT 11.58 1876 - Not Applicable
05/03/2026 12 AM PDT 11.60 1892 + Not Applicable
05/03/2026 01 AM PDT 11.60 1892 0 Not Applicable
05/03/2026 02 AM PDT 11.62 1909 + Not Applicable
05/03/2026 03 AM PDT 11.60 1892 - Not Applicable
05/03/2026 04 AM PDT 11.64 1926 + Not Applicable
05/03/2026 05 AM PDT 11.62 1909 - Not Applicable
05/03/2026 06 AM PDT 11.65 1934 + Not Applicable
05/03/2026 07 AM PDT 11.66 1943 + Not Applicable
05/03/2026 08 AM PDT 11.62 1909 - Not Applicable
05/03/2026 09 AM PDT 11.65 1934 + Not Applicable
05/03/2026 10 AM PDT 11.62 1909 - Not Applicable
05/03/2026 11 AM PDT 11.61 1901 - Not Applicable
05/03/2026 12 PM PDT 11.60 1892 - Not Applicable
05/03/2026 01 PM PDT 11.60 1892 0 Not Applicable
05/03/2026 02 PM PDT 11.55 1851 - Not Applicable
05/03/2026 03 PM PDT 11.55 1851 0 Not Applicable
05/03/2026 04 PM PDT 11.56 1859 + Not Applicable
05/03/2026 05 PM PDT 11.53 1835 - Not Applicable
05/03/2026 06 PM PDT 11.56 1859 + Not Applicable
05/03/2026 07 PM PDT 11.56 1859 0 Not Applicable
05/03/2026 08 PM PDT 11.54 1843 - Not Applicable
05/03/2026 09 PM PDT 11.55 1851 + Not Applicable
05/03/2026 10 PM PDT 11.53 1835 - Not Applicable
05/03/2026 11 PM PDT 11.56 1859 + Not Applicable
05/04/2026 12 AM PDT 11.54 1843 - Not Applicable
05/04/2026 01 AM PDT 11.55 1851 + Not Applicable
05/04/2026 02 AM PDT 11.56 1859 + Not Applicable
05/04/2026 03 AM PDT 11.57 1868 + Not Applicable
05/04/2026 04 AM PDT 11.59 1884 + Not Applicable
05/04/2026 05 AM PDT 11.60 1892 + Not Applicable
05/04/2026 06 AM PDT 11.57 1868 - Not Applicable
05/04/2026 07 AM PDT 11.64 1926 + Not Applicable
05/04/2026 08 AM PDT 11.60 1892 - Not Applicable
05/04/2026 09 AM PDT 11.59 1884 - Not Applicable
05/04/2026 10 AM PDT 11.60 1892 + Not Applicable
05/04/2026 11 AM PDT 11.57 1868 - Not Applicable
05/04/2026 12 PM PDT 11.56 1859 - Not Applicable
05/04/2026 01 PM PDT 11.55 1851 - Not Applicable
05/04/2026 02 PM PDT 11.54 1843 - Not Applicable
05/04/2026 03 PM PDT 11.53 1835 - Not Applicable
05/04/2026 04 PM PDT 11.52 1826 - Not Applicable
05/04/2026 05 PM PDT 11.51 1818 - Not Applicable
05/04/2026 06 PM PDT 11.55 1851 + Not Applicable
05/04/2026 07 PM PDT 11.52 1826 - Not Applicable
05/04/2026 08 PM PDT 11.51 1818 - Not Applicable
05/04/2026 09 PM PDT 11.53 1835 + Not Applicable
05/04/2026 10 PM PDT 11.51 1818 - Not Applicable
05/04/2026 11 PM PDT 11.51 1818 0 Not Applicable
05/05/2026 12 AM PDT 11.52 1826 + Not Applicable
05/05/2026 01 AM PDT 11.52 1826 0 Not Applicable
05/05/2026 02 AM PDT 11.56 1859 + Not Applicable
05/05/2026 03 AM PDT 11.54 1843 - Not Applicable
05/05/2026 04 AM PDT 11.55 1851 + Not Applicable
05/05/2026 05 AM PDT 11.55 1851 0 Not Applicable
05/05/2026 06 AM PDT 11.55 1851 0 Not Applicable
05/05/2026 07 AM PDT 11.55 1851 0 Not Applicable
#
# FORECAST
#
# Date & Time (Local) Stage (Feet) Flow (cfs) Trend Forecast Status
# ---------------------------------------------------------------------------------
05/05/2026 08 AM PDT 11.55 1851 Not Applicable
05/05/2026 09 AM PDT 11.55 1851 0 Not Applicable
05/05/2026 10 AM PDT 11.54 1843 - Not Applicable
05/05/2026 11 AM PDT 11.53 1835 - Not Applicable
05/05/2026 12 PM PDT 11.52 1826 - Not Applicable
05/05/2026 01 PM PDT 11.52 1826 0 Not Applicable
05/05/2026 02 PM PDT 11.52 1826 0 Not Applicable
05/05/2026 03 PM PDT 11.51 1818 - Not Applicable
05/05/2026 04 PM PDT 11.51 1818 0 Not Applicable
05/05/2026 05 PM PDT 11.51 1818 0 Not Applicable
05/05/2026 06 PM PDT 11.51 1818 0 Not Applicable
05/05/2026 07 PM PDT 11.51 1818 0 Not Applicable
05/05/2026 08 PM PDT 11.51 1818 0 Not Applicable
05/05/2026 09 PM PDT 11.51 1818 0 Not Applicable
05/05/2026 10 PM PDT 11.51 1818 0 Not Applicable
05/05/2026 11 PM PDT 11.51 1818 0 Not Applicable
05/06/2026 12 AM PDT 11.51 1818 0 Not Applicable
05/06/2026 01 AM PDT 11.51 1818 0 Not Applicable
05/06/2026 02 AM PDT 11.51 1818 0 Not Applicable
05/06/2026 03 AM PDT 11.51 1818 0 Not Applicable
05/06/2026 04 AM PDT 11.51 1818 0 Not Applicable
05/06/2026 05 AM PDT 11.51 1818 0 Not Applicable
05/06/2026 06 AM PDT 11.51 1818 0 Not Applicable
05/06/2026 07 AM PDT 11.50 1810 - Not Applicable
05/06/2026 08 AM PDT 11.50 1810 0 Not Applicable
05/06/2026 09 AM PDT 11.50 1810 0 Not Applicable
05/06/2026 10 AM PDT 11.50 1810 0 Not Applicable
05/06/2026 11 AM PDT 11.50 1810 0 Not Applicable
05/06/2026 12 PM PDT 11.50 1810 0 Not Applicable
05/06/2026 01 PM PDT 11.50 1810 0 Not Applicable
05/06/2026 02 PM PDT 11.50 1810 0 Not Applicable
05/06/2026 03 PM PDT 11.50 1810 0 Not Applicable
05/06/2026 04 PM PDT 11.50 1810 0 Not Applicable
05/06/2026 05 PM PDT 11.50 1810 0 Not Applicable
05/06/2026 06 PM PDT 11.50 1810 0 Not Applicable
05/06/2026 07 PM PDT 11.50 1810 0 Not Applicable
05/06/2026 08 PM PDT 11.50 1810 0 Not Applicable
05/06/2026 09 PM PDT 11.50 1810 0 Not Applicable
05/06/2026 10 PM PDT 11.50 1810 0 Not Applicable
05/06/2026 11 PM PDT 11.50 1810 0 Not Applicable
05/07/2026 12 AM PDT 11.50 1810 0 Not Applicable
05/07/2026 01 AM PDT 11.50 1810 0 Not Applicable
05/07/2026 02 AM PDT 11.50 1810 0 Not Applicable
05/07/2026 03 AM PDT 11.50 1810 0 Not Applicable
05/07/2026 04 AM PDT 11.50 1810 0 Not Applicable
05/07/2026 05 AM PDT 11.50 1810 0 Not Applicable
05/07/2026 06 AM PDT 11.50 1810 0 Not Applicable
05/07/2026 07 AM PDT 11.50 1810 0 Not Applicable
05/07/2026 08 AM PDT 11.50 1810 0 Not Applicable
05/07/2026 09 AM PDT 11.50 1810 0 Not Applicable
05/07/2026 10 AM PDT 11.50 1810 0 Not Applicable
05/07/2026 11 AM PDT 11.50 1810 0 Not Applicable
05/07/2026 12 PM PDT 11.50 1810 0 Not Applicable
05/07/2026 01 PM PDT 11.50 1810 0 Not Applicable
05/07/2026 02 PM PDT 11.50 1810 0 Not Applicable
05/07/2026 03 PM PDT 11.50 1810 0 Not Applicable
05/07/2026 04 PM PDT 11.50 1810 0 Not Applicable
05/07/2026 05 PM PDT 11.50 1810 0 Not Applicable
05/07/2026 06 PM PDT 11.50 1810 0 Not Applicable
05/07/2026 07 PM PDT 11.50 1810 0 Not Applicable
05/07/2026 08 PM PDT 11.50 1810 0 Not Applicable
05/07/2026 09 PM PDT 11.50 1810 0 Not Applicable
05/07/2026 10 PM PDT 11.50 1810 0 Not Applicable
05/07/2026 11 PM PDT 11.50 1810 0 Not Applicable
05/08/2026 12 AM PDT 11.50 1810 0 Not Applicable
05/08/2026 01 AM PDT 11.50 1810 0 Not Applicable
05/08/2026 02 AM PDT 11.50 1810 0 Not Applicable
05/08/2026 03 AM PDT 11.50 1810 0 Not Applicable
05/08/2026 04 AM PDT 11.50 1810 0 Not Applicable
05/08/2026 05 AM PDT 11.50 1810 0 Not Applicable
05/08/2026 06 AM PDT 11.49 1802 - Not Applicable
05/08/2026 07 AM PDT 11.49 1802 0 Not Applicable
05/08/2026 08 AM PDT 11.49 1802 0 Not Applicable
05/08/2026 09 AM PDT 11.49 1802 0 Not Applicable
05/08/2026 10 AM PDT 11.49 1802 0 Not Applicable
05/08/2026 11 AM PDT 11.49 1802 0 Not Applicable
05/08/2026 12 PM PDT 11.49 1802 0 Not Applicable
05/08/2026 01 PM PDT 11.49 1802 0 Not Applicable
05/08/2026 02 PM PDT 11.49 1802 0 Not Applicable
05/08/2026 03 PM PDT 11.49 1802 0 Not Applicable
05/08/2026 04 PM PDT 11.49 1802 0 Not Applicable
05/08/2026 05 PM PDT 11.49 1802 0 Not Applicable
05/08/2026 06 PM PDT 11.49 1802 0 Not Applicable
05/08/2026 07 PM PDT 11.49 1802 0 Not Applicable
05/08/2026 08 PM PDT 11.49 1802 0 Not Applicable
05/08/2026 09 PM PDT 11.49 1802 0 Not Applicable
05/08/2026 10 PM PDT 11.49 1802 0 Not Applicable
05/08/2026 11 PM PDT 11.49 1802 0 Not Applicable
05/09/2026 12 AM PDT 11.49 1802 0 Not Applicable
05/09/2026 01 AM PDT 11.49 1802 0 Not Applicable
05/09/2026 02 AM PDT 11.49 1802 0 Not Applicable
05/09/2026 03 AM PDT 11.49 1802 0 Not Applicable
05/09/2026 04 AM PDT 11.49 1802 0 Not Applicable
05/09/2026 05 AM PDT 11.49 1802 0 Not Applicable
05/09/2026 06 AM PDT 11.49 1802 0 Not Applicable
05/09/2026 07 AM PDT 11.49 1802 0 Not Applicable
05/09/2026 08 AM PDT 11.49 1802 0 Not Applicable
05/09/2026 09 AM PDT 11.49 1802 0 Not Applicable
05/09/2026 10 AM PDT 11.49 1802 0 Not Applicable
05/09/2026 11 AM PDT 11.49 1802 0 Not Applicable
05/09/2026 12 PM PDT 11.49 1802 0 Not Applicable
05/09/2026 01 PM PDT 11.49 1802 0 Not Applicable
05/09/2026 02 PM PDT 11.49 1802 0 Not Applicable
05/09/2026 03 PM PDT 11.49 1802 0 Not Applicable
05/09/2026 04 PM PDT 11.49 1802 0 Not Applicable
05/09/2026 05 PM PDT 11.49 1802 0 Not Applicable
05/09/2026 06 PM PDT 11.49 1802 0 Not Applicable
05/09/2026 07 PM PDT 11.49 1802 0 Not Applicable
05/09/2026 08 PM PDT 11.49 1802 0 Not Applicable
05/09/2026 09 PM PDT 11.49 1802 0 Not Applicable
05/09/2026 10 PM PDT 11.49 1802 0 Not Applicable
05/09/2026 11 PM PDT 11.49 1802 0 Not Applicable
05/10/2026 12 AM PDT 11.49 1802 0 Not Applicable
05/10/2026 01 AM PDT 11.49 1802 0 Not Applicable
05/10/2026 02 AM PDT 11.49 1802 0 Not Applicable
05/10/2026 03 AM PDT 11.49 1802 0 Not Applicable
05/10/2026 04 AM PDT 11.49 1802 0 Not Applicable
05/10/2026 05 AM PDT 11.49 1802 0 Not Applicable
#
# NOTE 1: Stages are rounded to the nearest hundredth (.01) of a foot.
# NOTE 2: Flows are rounded to the nearest (1) cfs.
# NOTE 3: Trends are determined using hourly change in unrounded stage and flow.
# NOTE 4: Maximum Values are determined using unrounded stage and flow.
|